Terminal Aerodrome Forecast
Issued by NWS Topeka, KS

Home | Current Version | Previous Version | Text Only | Print | Product List | Glossary Off
Versions: 1 2 3 4 5 6 7 8 9 10 11 12 13 14 15 16

653
FTUS43 KTOP 230520
TAFTOP
TAF
KTOP 230520Z 2306/2406 12011KT P6SM OVC035
     FM230730 13012KT P6SM -DZ OVC023
     FM230900 14013KT 6SM -DZ OVC014
     FM231400 15014G19KT P6SM BKN028
     FM231800 17017G25KT P6SM SCT035=

USA.gov is the U.S. government's official web portal to all federal, state and local government web resources and services.